sensor_id;sensor_type;location;lat;lon;timestamp;P1;durP1;ratioP1;P2;durP2;ratioP2
63342;SDS011;49465;57.664;39.686;2024-01-30T00:02:31;5.40;;;3.40;;
63342;SDS011;49465;57.664;39.686;2024-01-30T00:05:11;6.47;;;3.50;;
63342;SDS011;49465;57.664;39.686;2024-01-30T00:07:45;4.78;;;3.08;;
63342;SDS011;49465;57.664;39.686;2024-01-30T00:10:18;5.47;;;3.20;;
63342;SDS011;49465;57.664;39.686;2024-01-30T00:12:56;5.35;;;3.40;;
63342;SDS011;49465;57.664;39.686;2024-01-30T00:15:25;4.47;;;2.97;;
63342;SDS011;49465;57.664;39.686;2024-01-30T00:18:04;4.50;;;3.05;;
63342;SDS011;49465;57.664;39.686;2024-01-30T00:20:34;5.00;;;2.97;;
63342;SDS011;49465;57.664;39.686;2024-01-30T00:23:05;5.50;;;3.10;;
63342;SDS011;49465;57.664;39.686;2024-01-30T00:25:37;4.38;;;3.08;;
63342;SDS011;49465;57.664;39.686;2024-01-30T00:28:07;4.55;;;3.20;;
63342;SDS011;49465;57.664;39.686;2024-01-30T00:30:44;4.93;;;3.17;;
63342;SDS011;49465;57.664;39.686;2024-01-30T00:33:14;5.47;;;3.20;;
63342;SDS011;49465;57.664;39.686;2024-01-30T00:35:51;5.05;;;2.65;;
63342;SDS011;49465;57.664;39.686;2024-01-30T00:38:18;3.95;;;3.05;;
63342;SDS011;49465;57.664;39.686;2024-01-30T00:40:50;4.53;;;3.10;;
63342;SDS011;49465;57.664;39.686;2024-01-30T00:43:27;4.00;;;3.05;;
63342;SDS011;49465;57.664;39.686;2024-01-30T00:45:59;4.22;;;2.97;;
63342;SDS011;49465;57.664;39.686;2024-01-30T00:48:29;5.10;;;2.60;;
63342;SDS011;49465;57.664;39.686;2024-01-30T00:51:04;4.65;;;2.83;;
63342;SDS011;49465;57.664;39.686;2024-01-30T00:53:31;4.70;;;3.15;;
63342;SDS011;49465;57.664;39.686;2024-01-30T00:56:03;5.05;;;3.42;;
63342;SDS011;49465;57.664;39.686;2024-01-30T00:58:41;5.13;;;3.05;;
63342;SDS011;49465;57.664;39.686;2024-01-30T01:01:11;5.93;;;3.35;;
63342;SDS011;49465;57.664;39.686;2024-01-30T01:03:44;4.57;;;3.00;;
63342;SDS011;49465;57.664;39.686;2024-01-30T01:06:16;3.80;;;2.65;;
63342;SDS011;49465;57.664;39.686;2024-01-30T01:08:51;7.35;;;3.25;;
63342;SDS011;49465;57.664;39.686;2024-01-30T01:11:23;4.72;;;3.28;;
63342;SDS011;49465;57.664;39.686;2024-01-30T01:13:52;5.65;;;3.05;;
63342;SDS011;49465;57.664;39.686;2024-01-30T01:16:21;5.70;;;3.45;;
63342;SDS011;49465;57.664;39.686;2024-01-30T01:18:48;4.32;;;2.55;;
63342;SDS011;49465;57.664;39.686;2024-01-30T01:21:20;4.38;;;2.78;;
63342;SDS011;49465;57.664;39.686;2024-01-30T01:23:52;6.38;;;3.75;;
63342;SDS011;49465;57.664;39.686;2024-01-30T01:26:24;4.15;;;3.22;;
63342;SDS011;49465;57.664;39.686;2024-01-30T01:28:54;5.28;;;3.47;;
63342;SDS011;49465;57.664;39.686;2024-01-30T01:31:29;4.80;;;3.15;;
63342;SDS011;49465;57.664;39.686;2024-01-30T01:33:58;5.47;;;3.10;;
63342;SDS011;49465;57.664;39.686;2024-01-30T01:36:28;5.82;;;3.25;;
63342;SDS011;49465;57.664;39.686;2024-01-30T01:38:54;5.70;;;3.67;;
63342;SDS011;49465;57.664;39.686;2024-01-30T01:41:32;5.30;;;3.20;;
63342;SDS011;49465;57.664;39.686;2024-01-30T01:44:04;6.28;;;3.50;;
63342;SDS011;49465;57.664;39.686;2024-01-30T01:46:40;5.13;;;3.30;;
63342;SDS011;49465;57.664;39.686;2024-01-30T01:49:12;4.07;;;3.22;;
63342;SDS011;49465;57.664;39.686;2024-01-30T01:51:44;5.25;;;3.58;;
63342;SDS011;49465;57.664;39.686;2024-01-30T01:54:19;5.88;;;3.38;;
63342;SDS011;49465;57.664;39.686;2024-01-30T01:56:56;5.68;;;3.50;;
63342;SDS011;49465;57.664;39.686;2024-01-30T01:59:22;5.18;;;3.63;;
63342;SDS011;49465;57.664;39.686;2024-01-30T02:01:55;4.85;;;3.47;;
63342;SDS011;49465;57.664;39.686;2024-01-30T02:04:27;5.55;;;3.10;;
63342;SDS011;49465;57.664;39.686;2024-01-30T02:06:56;4.65;;;3.40;;
63342;SDS011;49465;57.664;39.686;2024-01-30T02:09:29;6.70;;;3.70;;
63342;SDS011;49465;57.664;39.686;2024-01-30T02:12:03;5.72;;;3.20;;
63342;SDS011;49465;57.664;39.686;2024-01-30T02:14:32;5.75;;;3.38;;
63342;SDS011;49465;57.664;39.686;2024-01-30T02:17:27;6.80;;;3.60;;
63342;SDS011;49465;57.664;39.686;2024-01-30T02:20:09;4.38;;;3.25;;
63342;SDS011;49465;57.664;39.686;2024-01-30T02:22:41;8.57;;;3.60;;
63342;SDS011;49465;57.664;39.686;2024-01-30T02:28:12;6.13;;;3.40;;
63342;SDS011;49465;57.664;39.686;2024-01-30T02:30:48;5.93;;;3.67;;
63342;SDS011;49465;57.664;39.686;2024-01-30T02:33:20;5.82;;;3.38;;
63342;SDS011;49465;57.664;39.686;2024-01-30T02:35:54;4.85;;;3.25;;
63342;SDS011;49465;57.664;39.686;2024-01-30T02:38:34;5.53;;;3.50;;
63342;SDS011;49465;57.664;39.686;2024-01-30T02:41:09;5.78;;;3.30;;
63342;SDS011;49465;57.664;39.686;2024-01-30T02:43:41;5.55;;;3.70;;
63342;SDS011;49465;57.664;39.686;2024-01-30T02:46:12;4.80;;;3.22;;
63342;SDS011;49465;57.664;39.686;2024-01-30T02:48:41;5.47;;;3.20;;
63342;SDS011;49465;57.664;39.686;2024-01-30T02:51:16;6.35;;;3.78;;
63342;SDS011;49465;57.664;39.686;2024-01-30T02:53:46;5.88;;;3.38;;
63342;SDS011;49465;57.664;39.686;2024-01-30T02:56:16;4.68;;;3.17;;
63342;SDS011;49465;57.664;39.686;2024-01-30T02:58:45;7.05;;;3.90;;
63342;SDS011;49465;57.664;39.686;2024-01-30T03:01:17;6.85;;;3.88;;
63342;SDS011;49465;57.664;39.686;2024-01-30T03:03:46;7.03;;;3.92;;
63342;SDS011;49465;57.664;39.686;2024-01-30T03:06:22;7.38;;;4.00;;
63342;SDS011;49465;57.664;39.686;2024-01-30T03:08:48;5.68;;;3.53;;
63342;SDS011;49465;57.664;39.686;2024-01-30T03:11:20;6.88;;;3.55;;
63342;SDS011;49465;57.664;39.686;2024-01-30T03:13:55;4.88;;;3.60;;
63342;SDS011;49465;57.664;39.686;2024-01-30T03:16:30;5.93;;;3.65;;
63342;SDS011;49465;57.664;39.686;2024-01-30T03:19:02;6.13;;;3.55;;
63342;SDS011;49465;57.664;39.686;2024-01-30T03:21:36;6.15;;;3.33;;
63342;SDS011;49465;57.664;39.686;2024-01-30T03:24:08;6.85;;;3.95;;
63342;SDS011;49465;57.664;39.686;2024-01-30T03:26:37;7.68;;;4.28;;
63342;SDS011;49465;57.664;39.686;2024-01-30T03:29:09;8.55;;;3.92;;
63342;SDS011;49465;57.664;39.686;2024-01-30T03:31:43;6.30;;;3.78;;
63342;SDS011;49465;57.664;39.686;2024-01-30T03:34:12;6.70;;;4.05;;
63342;SDS011;49465;57.664;39.686;2024-01-30T03:36:41;7.85;;;4.10;;
63342;SDS011;49465;57.664;39.686;2024-01-30T03:39:11;6.45;;;3.83;;
63342;SDS011;49465;57.664;39.686;2024-01-30T03:41:46;6.57;;;3.83;;
63342;SDS011;49465;57.664;39.686;2024-01-30T03:44:21;7.63;;;3.90;;
63342;SDS011;49465;57.664;39.686;2024-01-30T03:46:50;4.80;;;3.15;;
63342;SDS011;49465;57.664;39.686;2024-01-30T03:49:22;7.95;;;4.25;;
63342;SDS011;49465;57.664;39.686;2024-01-30T03:51:53;8.20;;;3.92;;
63342;SDS011;49465;57.664;39.686;2024-01-30T03:54:25;6.22;;;3.88;;
63342;SDS011;49465;57.664;39.686;2024-01-30T03:56:51;8.20;;;4.38;;
63342;SDS011;49465;57.664;39.686;2024-01-30T03:59:27;6.95;;;4.22;;
63342;SDS011;49465;57.664;39.686;2024-01-30T04:02:04;9.77;;;4.32;;
63342;SDS011;49465;57.664;39.686;2024-01-30T04:04:33;6.38;;;4.15;;
63342;SDS011;49465;57.664;39.686;2024-01-30T04:06:59;6.95;;;3.97;;
63342;SDS011;49465;57.664;39.686;2024-01-30T04:09:31;7.03;;;3.75;;
63342;SDS011;49465;57.664;39.686;2024-01-30T04:12:00;8.05;;;4.18;;
63342;SDS011;49465;57.664;39.686;2024-01-30T04:14:32;7.65;;;4.40;;
63342;SDS011;49465;57.664;39.686;2024-01-30T04:17:02;9.80;;;4.60;;
63342;SDS011;49465;57.664;39.686;2024-01-30T04:19:31;7.03;;;4.40;;
63342;SDS011;49465;57.664;39.686;2024-01-30T04:22:02;7.78;;;4.28;;
63342;SDS011;49465;57.664;39.686;2024-01-30T04:24:31;7.20;;;4.00;;
63342;SDS011;49465;57.664;39.686;2024-01-30T04:27:03;7.43;;;4.15;;
63342;SDS011;49465;57.664;39.686;2024-01-30T04:29:29;6.88;;;4.30;;
63342;SDS011;49465;57.664;39.686;2024-01-30T04:31:57;9.32;;;4.20;;
63342;SDS011;49465;57.664;39.686;2024-01-30T04:34:31;6.97;;;4.05;;
63342;SDS011;49465;57.664;39.686;2024-01-30T04:36:58;8.50;;;4.60;;
63342;SDS011;49465;57.664;39.686;2024-01-30T04:39:24;7.10;;;4.35;;
63342;SDS011;49465;57.664;39.686;2024-01-30T04:41:54;6.90;;;4.10;;
63342;SDS011;49465;57.664;39.686;2024-01-30T04:44:28;9.52;;;4.82;;
63342;SDS011;49465;57.664;39.686;2024-01-30T04:47:01;8.73;;;4.90;;
63342;SDS011;49465;57.664;39.686;2024-01-30T04:49:34;6.82;;;4.28;;
63342;SDS011;49465;57.664;39.686;2024-01-30T04:52:09;7.78;;;4.25;;
63342;SDS011;49465;57.664;39.686;2024-01-30T04:54:44;8.93;;;3.78;;
63342;SDS011;49465;57.664;39.686;2024-01-30T04:57:27;10.15;;;4.80;;
63342;SDS011;49465;57.664;39.686;2024-01-30T05:00:01;7.50;;;4.85;;
63342;SDS011;49465;57.664;39.686;2024-01-30T05:02:36;10.68;;;4.88;;
63342;SDS011;49465;57.664;39.686;2024-01-30T05:05:08;7.82;;;4.72;;
63342;SDS011;49465;57.664;39.686;2024-01-30T05:07:38;9.82;;;4.30;;
63342;SDS011;49465;57.664;39.686;2024-01-30T05:10:14;8.82;;;4.55;;
63342;SDS011;49465;57.664;39.686;2024-01-30T05:12:49;8.77;;;4.60;;
63342;SDS011;49465;57.664;39.686;2024-01-30T05:15:19;7.47;;;4.88;;
63342;SDS011;49465;57.664;39.686;2024-01-30T05:17:54;7.85;;;4.63;;
63342;SDS011;49465;57.664;39.686;2024-01-30T05:20:23;11.63;;;5.32;;
63342;SDS011;49465;57.664;39.686;2024-01-30T05:22:55;8.48;;;4.40;;
63342;SDS011;49465;57.664;39.686;2024-01-30T05:25:39;8.57;;;4.60;;
63342;SDS011;49465;57.664;39.686;2024-01-30T05:28:24;10.05;;;4.88;;
63342;SDS011;49465;57.664;39.686;2024-01-30T05:31:02;6.40;;;3.75;;
63342;SDS011;49465;57.664;39.686;2024-01-30T05:33:37;8.48;;;4.65;;
63342;SDS011;49465;57.664;39.686;2024-01-30T05:36:11;8.98;;;4.60;;
63342;SDS011;49465;57.664;39.686;2024-01-30T05:38:45;11.55;;;4.95;;
63342;SDS011;49465;57.664;39.686;2024-01-30T05:41:24;9.07;;;4.93;;
63342;SDS011;49465;57.664;39.686;2024-01-30T05:43:59;6.85;;;4.07;;
63342;SDS011;49465;57.664;39.686;2024-01-30T05:46:31;8.80;;;4.60;;
63342;SDS011;49465;57.664;39.686;2024-01-30T05:49:03;8.07;;;4.32;;
63342;SDS011;49465;57.664;39.686;2024-01-30T05:51:32;9.13;;;4.68;;
63342;SDS011;49465;57.664;39.686;2024-01-30T05:54:09;10.73;;;5.00;;
63342;SDS011;49465;57.664;39.686;2024-01-30T05:56:47;9.20;;;4.90;;
63342;SDS011;49465;57.664;39.686;2024-01-30T05:59:23;11.13;;;5.18;;
63342;SDS011;49465;57.664;39.686;2024-01-30T06:02:00;9.48;;;4.90;;
63342;SDS011;49465;57.664;39.686;2024-01-30T06:04:27;11.65;;;4.97;;
63342;SDS011;49465;57.664;39.686;2024-01-30T06:06:57;7.38;;;4.28;;
63342;SDS011;49465;57.664;39.686;2024-01-30T06:09:26;9.85;;;4.70;;
63342;SDS011;49465;57.664;39.686;2024-01-30T06:11:58;9.32;;;4.90;;
63342;SDS011;49465;57.664;39.686;2024-01-30T06:14:30;9.18;;;4.50;;
63342;SDS011;49465;57.664;39.686;2024-01-30T06:16:59;10.35;;;5.07;;
63342;SDS011;49465;57.664;39.686;2024-01-30T06:19:34;8.90;;;4.47;;
63342;SDS011;49465;57.664;39.686;2024-01-30T06:22:09;8.50;;;4.50;;
63342;SDS011;49465;57.664;39.686;2024-01-30T06:24:47;11.20;;;4.80;;
63342;SDS011;49465;57.664;39.686;2024-01-30T06:27:14;9.40;;;4.88;;
63342;SDS011;49465;57.664;39.686;2024-01-30T06:29:49;8.52;;;4.53;;
63342;SDS011;49465;57.664;39.686;2024-01-30T06:32:21;7.22;;;4.82;;
63342;SDS011;49465;57.664;39.686;2024-01-30T06:34:47;8.90;;;4.72;;
63342;SDS011;49465;57.664;39.686;2024-01-30T06:37:21;8.52;;;4.50;;
63342;SDS011;49465;57.664;39.686;2024-01-30T06:39:52;10.27;;;5.00;;
63342;SDS011;49465;57.664;39.686;2024-01-30T06:42:24;10.77;;;5.45;;
63342;SDS011;49465;57.664;39.686;2024-01-30T06:44:59;7.38;;;4.65;;
63342;SDS011;49465;57.664;39.686;2024-01-30T06:47:33;8.43;;;4.70;;
63342;SDS011;49465;57.664;39.686;2024-01-30T06:50:10;10.07;;;4.93;;
63342;SDS011;49465;57.664;39.686;2024-01-30T06:52:43;9.40;;;5.00;;
63342;SDS011;49465;57.664;39.686;2024-01-30T06:55:21;9.18;;;4.80;;
63342;SDS011;49465;57.664;39.686;2024-01-30T06:57:47;9.40;;;5.18;;
63342;SDS011;49465;57.664;39.686;2024-01-30T07:00:19;8.30;;;4.57;;
63342;SDS011;49465;57.664;39.686;2024-01-30T07:02:49;8.90;;;5.18;;
63342;SDS011;49465;57.664;39.686;2024-01-30T07:05:21;10.57;;;5.18;;
63342;SDS011;49465;57.664;39.686;2024-01-30T07:07:53;8.63;;;4.68;;
63342;SDS011;49465;57.664;39.686;2024-01-30T07:10:22;9.20;;;4.72;;
63342;SDS011;49465;57.664;39.686;2024-01-30T07:12:54;9.30;;;5.32;;
63342;SDS011;49465;57.664;39.686;2024-01-30T07:15:20;9.13;;;4.93;;
63342;SDS011;49465;57.664;39.686;2024-01-30T07:17:50;9.27;;;5.03;;
63342;SDS011;49465;57.664;39.686;2024-01-30T07:20:18;12.55;;;5.32;;
63342;SDS011;49465;57.664;39.686;2024-01-30T07:23:00;8.55;;;5.03;;
63342;SDS011;49465;57.664;39.686;2024-01-30T07:25:31;10.60;;;4.90;;
63342;SDS011;49465;57.664;39.686;2024-01-30T07:28:24;9.02;;;4.60;;
63342;SDS011;49465;57.664;39.686;2024-01-30T07:30:53;11.10;;;5.28;;
63342;SDS011;49465;57.664;39.686;2024-01-30T07:33:42;10.55;;;4.78;;
63342;SDS011;49465;57.664;39.686;2024-01-30T07:36:16;9.50;;;4.95;;
63342;SDS011;49465;57.664;39.686;2024-01-30T07:38:48;10.48;;;4.88;;
63342;SDS011;49465;57.664;39.686;2024-01-30T07:41:20;8.15;;;4.50;;
63342;SDS011;49465;57.664;39.686;2024-01-30T07:43:50;10.35;;;4.90;;
63342;SDS011;49465;57.664;39.686;2024-01-30T07:46:19;10.05;;;5.47;;
63342;SDS011;49465;57.664;39.686;2024-01-30T07:48:53;9.82;;;4.80;;
63342;SDS011;49465;57.664;39.686;2024-01-30T07:51:21;8.02;;;4.50;;
63342;SDS011;49465;57.664;39.686;2024-01-30T07:53:53;10.30;;;5.32;;
63342;SDS011;49465;57.664;39.686;2024-01-30T07:56:23;10.97;;;4.90;;
63342;SDS011;49465;57.664;39.686;2024-01-30T07:58:55;10.82;;;5.10;;
63342;SDS011;49465;57.664;39.686;2024-01-30T08:01:24;8.02;;;4.78;;
63342;SDS011;49465;57.664;39.686;2024-01-30T08:04:05;9.88;;;4.53;;
63342;SDS011;49465;57.664;39.686;2024-01-30T08:06:37;12.15;;;4.88;;
63342;SDS011;49465;57.664;39.686;2024-01-30T08:09:15;10.70;;;4.70;;
63342;SDS011;49465;57.664;39.686;2024-01-30T08:11:53;10.65;;;4.85;;
63342;SDS011;49465;57.664;39.686;2024-01-30T08:14:22;9.10;;;4.60;;
63342;SDS011;49465;57.664;39.686;2024-01-30T08:16:52;7.70;;;4.38;;
63342;SDS011;49465;57.664;39.686;2024-01-30T08:19:30;9.07;;;4.55;;
63342;SDS011;49465;57.664;39.686;2024-01-30T08:22:07;9.05;;;4.75;;
63342;SDS011;49465;57.664;39.686;2024-01-30T08:24:33;9.35;;;4.20;;
63342;SDS011;49465;57.664;39.686;2024-01-30T08:27:08;6.88;;;3.83;;
63342;SDS011;49465;57.664;39.686;2024-01-30T08:30:00;10.35;;;4.60;;
63342;SDS011;49465;57.664;39.686;2024-01-30T08:32:28;9.38;;;4.38;;
63342;SDS011;49465;57.664;39.686;2024-01-30T08:35:00;7.60;;;4.50;;
63342;SDS011;49465;57.664;39.686;2024-01-30T08:37:41;8.77;;;4.55;;
63342;SDS011;49465;57.664;39.686;2024-01-30T08:40:15;6.38;;;3.90;;
63342;SDS011;49465;57.664;39.686;2024-01-30T08:42:50;8.65;;;4.32;;
63342;SDS011;49465;57.664;39.686;2024-01-30T08:45:20;10.90;;;4.60;;
63342;SDS011;49465;57.664;39.686;2024-01-30T08:48:01;8.75;;;4.53;;
63342;SDS011;49465;57.664;39.686;2024-01-30T08:50:36;7.63;;;4.05;;
63342;SDS011;49465;57.664;39.686;2024-01-30T08:53:11;9.52;;;4.72;;
63342;SDS011;49465;57.664;39.686;2024-01-30T08:55:42;8.55;;;4.43;;
63342;SDS011;49465;57.664;39.686;2024-01-30T08:58:14;6.22;;;4.28;;
63342;SDS011;49465;57.664;39.686;2024-01-30T09:00:44;10.25;;;4.40;;
63342;SDS011;49465;57.664;39.686;2024-01-30T09:03:21;8.15;;;4.68;;
63342;SDS011;49465;57.664;39.686;2024-01-30T09:05:56;9.77;;;4.38;;
63342;SDS011;49465;57.664;39.686;2024-01-30T09:08:33;8.93;;;4.20;;
63342;SDS011;49465;57.664;39.686;2024-01-30T09:11:02;7.20;;;4.13;;
63342;SDS011;49465;57.664;39.686;2024-01-30T09:13:38;8.50;;;3.97;;
63342;SDS011;49465;57.664;39.686;2024-01-30T09:16:07;9.75;;;4.20;;
63342;SDS011;49465;57.664;39.686;2024-01-30T09:18:33;7.65;;;3.90;;
63342;SDS011;49465;57.664;39.686;2024-01-30T09:21:03;9.40;;;4.22;;
63342;SDS011;49465;57.664;39.686;2024-01-30T09:23:35;7.40;;;4.13;;
63342;SDS011;49465;57.664;39.686;2024-01-30T09:26:04;6.28;;;3.83;;
63342;SDS011;49465;57.664;39.686;2024-01-30T09:28:35;9.88;;;4.20;;
63342;SDS011;49465;57.664;39.686;2024-01-30T09:31:09;9.38;;;4.15;;
63342;SDS011;49465;57.664;39.686;2024-01-30T09:33:35;7.57;;;4.18;;
63342;SDS011;49465;57.664;39.686;2024-01-30T09:36:14;7.00;;;4.10;;
63342;SDS011;49465;57.664;39.686;2024-01-30T09:38:52;8.00;;;4.20;;
63342;SDS011;49465;57.664;39.686;2024-01-30T09:41:29;5.68;;;3.88;;
63342;SDS011;49465;57.664;39.686;2024-01-30T09:44:09;6.90;;;4.00;;
63342;SDS011;49465;57.664;39.686;2024-01-30T09:46:42;11.20;;;7.05;;
63342;SDS011;49465;57.664;39.686;2024-01-30T09:49:17;12.82;;;7.50;;
63342;SDS011;49465;57.664;39.686;2024-01-30T09:51:52;7.75;;;4.50;;
63342;SDS011;49465;57.664;39.686;2024-01-30T09:54:25;9.10;;;4.90;;
63342;SDS011;49465;57.664;39.686;2024-01-30T09:57:01;7.50;;;4.32;;
63342;SDS011;49465;57.664;39.686;2024-01-30T09:59:41;7.90;;;4.63;;
63342;SDS011;49465;57.664;39.686;2024-01-30T10:02:16;10.60;;;4.60;;
63342;SDS011;49465;57.664;39.686;2024-01-30T10:04:48;9.32;;;4.10;;
63342;SDS011;49465;57.664;39.686;2024-01-30T10:07:24;8.48;;;4.30;;
63342;SDS011;49465;57.664;39.686;2024-01-30T10:09:56;8.45;;;5.00;;
63342;SDS011;49465;57.664;39.686;2024-01-30T10:12:29;9.75;;;5.20;;
63342;SDS011;49465;57.664;39.686;2024-01-30T10:15:06;7.43;;;4.47;;
63342;SDS011;49465;57.664;39.686;2024-01-30T10:17:37;7.68;;;3.88;;
63342;SDS011;49465;57.664;39.686;2024-01-30T10:20:12;7.00;;;3.85;;
63342;SDS011;49465;57.664;39.686;2024-01-30T10:22:47;8.05;;;4.65;;
63342;SDS011;49465;57.664;39.686;2024-01-30T10:25:24;8.23;;;4.78;;
63342;SDS011;49465;57.664;39.686;2024-01-30T10:28:01;7.50;;;4.30;;
63342;SDS011;49465;57.664;39.686;2024-01-30T10:30:31;7.07;;;4.28;;
63342;SDS011;49465;57.664;39.686;2024-01-30T10:33:03;7.68;;;4.00;;
63342;SDS011;49465;57.664;39.686;2024-01-30T10:35:33;10.23;;;3.95;;
63342;SDS011;49465;57.664;39.686;2024-01-30T10:38:05;8.20;;;3.92;;
63342;SDS011;49465;57.664;39.686;2024-01-30T10:41:01;6.88;;;3.47;;
63342;SDS011;49465;57.664;39.686;2024-01-30T10:43:40;8.00;;;3.67;;
63342;SDS011;49465;57.664;39.686;2024-01-30T10:46:19;6.32;;;3.50;;
63342;SDS011;49465;57.664;39.686;2024-01-30T10:48:57;10.23;;;4.00;;
63342;SDS011;49465;57.664;39.686;2024-01-30T10:51:35;8.93;;;4.13;;
63342;SDS011;49465;57.664;39.686;2024-01-30T10:54:12;9.95;;;7.25;;
63342;SDS011;49465;57.664;39.686;2024-01-30T10:56:48;11.63;;;6.72;;
63342;SDS011;49465;57.664;39.686;2024-01-30T10:59:29;9.25;;;5.97;;
63342;SDS011;49465;57.664;39.686;2024-01-30T11:01:59;9.45;;;5.25;;
63342;SDS011;49465;57.664;39.686;2024-01-30T11:04:45;8.68;;;4.75;;
63342;SDS011;49465;57.664;39.686;2024-01-30T11:07:23;8.40;;;4.80;;
63342;SDS011;49465;57.664;39.686;2024-01-30T11:10:05;8.57;;;4.40;;
63342;SDS011;49465;57.664;39.686;2024-01-30T11:12:40;10.30;;;4.47;;
63342;SDS011;49465;57.664;39.686;2024-01-30T11:15:27;8.55;;;4.32;;
63342;SDS011;49465;57.664;39.686;2024-01-30T11:17:59;7.03;;;3.70;;
63342;SDS011;49465;57.664;39.686;2024-01-30T11:20:44;7.07;;;3.90;;
63342;SDS011;49465;57.664;39.686;2024-01-30T11:23:23;10.52;;;5.32;;
63342;SDS011;49465;57.664;39.686;2024-01-30T11:25:56;11.75;;;5.45;;
63342;SDS011;49465;57.664;39.686;2024-01-30T11:28:36;10.13;;;5.88;;
63342;SDS011;49465;57.664;39.686;2024-01-30T11:31:10;10.65;;;5.07;;
63342;SDS011;49465;57.664;39.686;2024-01-30T11:33:48;7.80;;;4.40;;
63342;SDS011;49465;57.664;39.686;2024-01-30T11:36:26;8.20;;;4.15;;
63342;SDS011;49465;57.664;39.686;2024-01-30T11:39:05;7.60;;;4.32;;
63342;SDS011;49465;57.664;39.686;2024-01-30T11:41:32;11.82;;;5.30;;
63342;SDS011;49465;57.664;39.686;2024-01-30T11:44:03;9.18;;;4.70;;
63342;SDS011;49465;57.664;39.686;2024-01-30T11:46:38;7.00;;;3.92;;
63342;SDS011;49465;57.664;39.686;2024-01-30T11:49:10;8.50;;;4.07;;
63342;SDS011;49465;57.664;39.686;2024-01-30T11:51:41;8.63;;;4.15;;
63342;SDS011;49465;57.664;39.686;2024-01-30T11:54:11;7.80;;;4.18;;
63342;SDS011;49465;57.664;39.686;2024-01-30T11:56:46;7.38;;;4.22;;
63342;SDS011;49465;57.664;39.686;2024-01-30T12:01:53;9.52;;;4.80;;
63342;SDS011;49465;57.664;39.686;2024-01-30T12:04:28;11.07;;;4.47;;
63342;SDS011;49465;57.664;39.686;2024-01-30T12:06:58;12.23;;;6.05;;
63342;SDS011;49465;57.664;39.686;2024-01-30T12:09:35;10.82;;;5.53;;
63342;SDS011;49465;57.664;39.686;2024-01-30T12:12:21;10.75;;;5.18;;
63342;SDS011;49465;57.664;39.686;2024-01-30T12:14:54;10.00;;;4.50;;
63342;SDS011;49465;57.664;39.686;2024-01-30T12:17:28;9.77;;;5.00;;
63342;SDS011;49465;57.664;39.686;2024-01-30T12:22:41;11.20;;;5.40;;
63342;SDS011;49465;57.664;39.686;2024-01-30T12:25:13;10.80;;;5.55;;
63342;SDS011;49465;57.664;39.686;2024-01-30T12:27:47;11.93;;;5.60;;
63342;SDS011;49465;57.664;39.686;2024-01-30T12:30:20;11.68;;;5.90;;
63342;SDS011;49465;57.664;39.686;2024-01-30T12:32:47;11.57;;;5.68;;
63342;SDS011;49465;57.664;39.686;2024-01-30T12:35:16;10.10;;;5.03;;
63342;SDS011;49465;57.664;39.686;2024-01-30T12:37:49;10.52;;;4.80;;
63342;SDS011;49465;57.664;39.686;2024-01-30T12:40:21;10.05;;;4.60;;
63342;SDS011;49465;57.664;39.686;2024-01-30T12:42:51;10.93;;;5.57;;
63342;SDS011;49465;57.664;39.686;2024-01-30T12:45:18;10.75;;;5.38;;
63342;SDS011;49465;57.664;39.686;2024-01-30T12:47:50;9.75;;;4.45;;
63342;SDS011;49465;57.664;39.686;2024-01-30T12:50:26;8.57;;;4.30;;
63342;SDS011;49465;57.664;39.686;2024-01-30T12:52:58;15.45;;;8.30;;
63342;SDS011;49465;57.664;39.686;2024-01-30T12:55:25;19.63;;;11.48;;
63342;SDS011;49465;57.664;39.686;2024-01-30T12:57:56;30.92;;;19.88;;
63342;SDS011;49465;57.664;39.686;2024-01-30T13:00:36;36.53;;;24.55;;
63342;SDS011;49465;57.664;39.686;2024-01-30T13:03:05;26.58;;;17.88;;
63342;SDS011;49465;57.664;39.686;2024-01-30T13:05:43;24.98;;;15.90;;
63342;SDS011;49465;57.664;39.686;2024-01-30T13:08:09;30.70;;;21.38;;
63342;SDS011;49465;57.664;39.686;2024-01-30T13:10:36;21.33;;;14.85;;
63342;SDS011;49465;57.664;39.686;2024-01-30T13:13:11;18.13;;;12.75;;
63342;SDS011;49465;57.664;39.686;2024-01-30T13:15:48;15.52;;;10.73;;
63342;SDS011;49465;57.664;39.686;2024-01-30T13:18:20;14.90;;;9.20;;
63342;SDS011;49465;57.664;39.686;2024-01-30T13:20:50;16.35;;;10.40;;
63342;SDS011;49465;57.664;39.686;2024-01-30T13:23:19;15.77;;;11.13;;
63342;SDS011;49465;57.664;39.686;2024-01-30T13:25:52;17.33;;;10.55;;
63342;SDS011;49465;57.664;39.686;2024-01-30T13:28:32;17.57;;;11.33;;
63342;SDS011;49465;57.664;39.686;2024-01-30T13:31:02;15.63;;;9.63;;
63342;SDS011;49465;57.664;39.686;2024-01-30T13:33:44;15.25;;;9.05;;
63342;SDS011;49465;57.664;39.686;2024-01-30T13:36:19;11.57;;;6.45;;
63342;SDS011;49465;57.664;39.686;2024-01-30T13:38:53;11.02;;;5.70;;
63342;SDS011;49465;57.664;39.686;2024-01-30T13:41:23;8.90;;;5.10;;
63342;SDS011;49465;57.664;39.686;2024-01-30T13:43:52;9.00;;;5.55;;
63342;SDS011;49465;57.664;39.686;2024-01-30T13:46:24;10.70;;;5.57;;
63342;SDS011;49465;57.664;39.686;2024-01-30T13:48:54;10.15;;;4.72;;
63342;SDS011;49465;57.664;39.686;2024-01-30T13:51:34;11.13;;;6.40;;
63342;SDS011;49465;57.664;39.686;2024-01-30T13:54:09;10.63;;;7.07;;
63342;SDS011;49465;57.664;39.686;2024-01-30T13:56:49;20.40;;;17.17;;
63342;SDS011;49465;57.664;39.686;2024-01-30T13:59:21;21.42;;;18.05;;
63342;SDS011;49465;57.664;39.686;2024-01-30T14:01:54;23.10;;;19.35;;
63342;SDS011;49465;57.664;39.686;2024-01-30T14:04:23;24.85;;;17.23;;
63342;SDS011;49465;57.664;39.686;2024-01-30T14:06:58;17.75;;;12.38;;
63342;SDS011;49465;57.664;39.686;2024-01-30T14:09:27;22.65;;;17.13;;
63342;SDS011;49465;57.664;39.686;2024-01-30T14:12:05;27.40;;;20.52;;
63342;SDS011;49465;57.664;39.686;2024-01-30T14:14:43;30.88;;;25.27;;
63342;SDS011;49465;57.664;39.686;2024-01-30T14:17:18;25.67;;;21.55;;
63342;SDS011;49465;57.664;39.686;2024-01-30T14:20:04;20.85;;;17.00;;
63342;SDS011;49465;57.664;39.686;2024-01-30T14:22:43;20.85;;;16.85;;
63342;SDS011;49465;57.664;39.686;2024-01-30T14:25:13;19.73;;;15.60;;
63342;SDS011;49465;57.664;39.686;2024-01-30T14:27:54;23.95;;;17.73;;
63342;SDS011;49465;57.664;39.686;2024-01-30T14:30:32;24.48;;;18.10;;
63342;SDS011;49465;57.664;39.686;2024-01-30T14:33:05;20.92;;;15.85;;
63342;SDS011;49465;57.664;39.686;2024-01-30T14:35:36;17.33;;;11.82;;
63342;SDS011;49465;57.664;39.686;2024-01-30T14:38:05;16.52;;;11.30;;
63342;SDS011;49465;57.664;39.686;2024-01-30T14:40:48;14.85;;;10.40;;
63342;SDS011;49465;57.664;39.686;2024-01-30T14:43:19;12.98;;;8.63;;
63342;SDS011;49465;57.664;39.686;2024-01-30T14:45:48;14.02;;;9.48;;
63342;SDS011;49465;57.664;39.686;2024-01-30T14:48:28;12.25;;;7.78;;
63342;SDS011;49465;57.664;39.686;2024-01-30T14:51:02;14.35;;;8.23;;
63342;SDS011;49465;57.664;39.686;2024-01-30T14:56:08;14.10;;;7.78;;
63342;SDS011;49465;57.664;39.686;2024-01-30T14:58:40;12.45;;;7.10;;
63342;SDS011;49465;57.664;39.686;2024-01-30T15:01:12;10.20;;;6.65;;
63342;SDS011;49465;57.664;39.686;2024-01-30T15:03:53;11.35;;;5.95;;
63342;SDS011;49465;57.664;39.686;2024-01-30T15:06:24;10.80;;;5.43;;
63342;SDS011;49465;57.664;39.686;2024-01-30T15:09:03;11.02;;;5.20;;
63342;SDS011;49465;57.664;39.686;2024-01-30T15:11:35;8.85;;;5.20;;
63342;SDS011;49465;57.664;39.686;2024-01-30T15:14:06;9.88;;;5.10;;
63342;SDS011;49465;57.664;39.686;2024-01-30T15:16:41;9.88;;;5.63;;